createdAt,value
2022-08-17T00:02:26.673Z,20.98
2022-08-17T00:04:55.637Z,21.03
2022-08-17T00:07:23.207Z,21.08
2022-08-17T00:09:50.403Z,21.02
2022-08-17T00:12:40.799Z,21.05
2022-08-17T00:15:10.466Z,21.00
2022-08-17T00:17:38.249Z,20.97
2022-08-17T00:20:06.469Z,20.57
2022-08-17T00:22:36.546Z,20.83
2022-08-17T00:25:05.282Z,20.93
2022-08-17T00:27:33.554Z,20.61
2022-08-17T00:30:00.727Z,20.98
2022-08-17T00:33:15.711Z,20.79
2022-08-17T00:35:18.296Z,21.15
2022-08-17T00:37:45.455Z,21.17
2022-08-17T00:40:15.291Z,20.89
2022-08-17T00:42:44.674Z,21.04
2022-08-17T00:45:12.977Z,21.10
2022-08-17T00:47:40.287Z,21.07
2022-08-17T00:50:11.708Z,21.13
2022-08-17T00:52:57.445Z,21.26
2022-08-17T00:55:25.759Z,21.28
2022-08-17T00:57:58.607Z,21.28
2022-08-17T01:00:39.615Z,21.29
2022-08-17T01:03:11.779Z,21.19
2022-08-17T01:05:42.250Z,21.23
2022-08-17T01:08:13.910Z,20.83
2022-08-17T01:10:57.579Z,21.04
2022-08-17T01:13:41.414Z,20.89
2022-08-17T01:16:20.855Z,21.04
2022-08-17T01:18:50.558Z,21.11
2022-08-17T01:21:41.260Z,21.07
2022-08-17T01:24:08.645Z,20.81
2022-08-17T01:26:38.345Z,20.67
2022-08-17T01:29:06.664Z,20.57
2022-08-17T01:31:45.402Z,20.00
2022-08-17T01:34:15.035Z,19.76
2022-08-17T01:36:45.944Z,19.45
2022-08-17T01:39:34.452Z,19.26
2022-08-17T01:42:08.475Z,19.44
2022-08-17T01:44:37.422Z,19.89
2022-08-17T01:47:05.883Z,20.07
2022-08-17T01:49:33.068Z,19.97
2022-08-17T01:52:09.999Z,20.32
2022-08-17T01:54:40.028Z,20.50
2022-08-17T01:57:07.380Z,20.32
2022-08-17T01:59:34.545Z,20.51
2022-08-17T02:02:02.528Z,20.59
2022-08-17T02:04:29.629Z,20.37
2022-08-17T02:06:56.783Z,20.31
2022-08-17T02:09:29.610Z,20.38
2022-08-17T02:11:59.838Z,20.45
2022-08-17T02:14:46.972Z,20.45
2022-08-17T02:17:14.151Z,20.48
2022-08-17T02:19:42.658Z,20.51
2022-08-17T02:22:10.249Z,20.16
2022-08-17T02:24:59.607Z,20.28
2022-08-17T02:27:26.070Z,20.23
2022-08-17T02:29:53.323Z,20.25
2022-08-17T02:32:27.390Z,20.28
2022-08-17T02:35:00.871Z,20.27
2022-08-17T02:37:28.775Z,20.27
2022-08-17T02:39:59.541Z,20.19
2022-08-17T02:42:31.418Z,20.34
2022-08-17T02:44:59.034Z,20.23
2022-08-17T02:47:26.795Z,20.24
2022-08-17T02:49:55.753Z,20.28
2022-08-17T02:52:43.020Z,20.22
2022-08-17T02:55:14.258Z,20.21
2022-08-17T02:57:41.434Z,19.93
2022-08-17T03:00:12.876Z,20.00
2022-08-17T03:02:42.217Z,19.95
2022-08-17T03:05:12.425Z,20.10
2022-08-17T03:07:39.590Z,19.94
2022-08-17T03:10:08.539Z,20.10
2022-08-17T03:12:40.266Z,20.08
2022-08-17T03:15:11.563Z,19.99
2022-08-17T03:17:38.751Z,19.68
2022-08-17T03:20:07.645Z,19.65
2022-08-17T03:22:39.739Z,19.69
2022-08-17T03:25:10.730Z,19.68
2022-08-17T03:27:38.176Z,19.38
2022-08-17T03:30:10.743Z,19.20
2022-08-17T03:32:40.784Z,18.26
2022-08-17T03:35:09.329Z,18.56
2022-08-17T03:37:36.613Z,18.91
2022-08-17T03:40:06.255Z,19.46
2022-08-17T03:42:34.544Z,19.76
2022-08-17T03:45:03.200Z,19.90
2022-08-17T03:47:48.835Z,19.94
2022-08-17T03:50:38.215Z,19.94
2022-08-17T03:53:31.956Z,20.18
2022-08-17T03:56:22.392Z,20.15
2022-08-17T03:58:50.469Z,20.20
2022-08-17T04:01:17.945Z,20.18
2022-08-17T04:03:45.155Z,20.27
2022-08-17T04:06:12.270Z,20.45
2022-08-17T04:08:39.415Z,20.40
2022-08-17T04:11:06.551Z,20.53
2022-08-17T04:13:33.677Z,20.58
2022-08-17T04:16:00.982Z,20.45
2022-08-17T04:18:28.118Z,20.38
2022-08-17T04:20:55.716Z,20.32
2022-08-17T04:23:28.228Z,20.54
2022-08-17T04:25:55.670Z,20.71
2022-08-17T04:28:22.795Z,20.69
2022-08-17T04:30:50.005Z,20.83
2022-08-17T04:33:21.778Z,20.84
2022-08-17T04:35:54.487Z,20.74
2022-08-17T04:38:24.420Z,20.67
2022-08-17T04:41:10.991Z,20.08
2022-08-17T04:43:40.729Z,20.31
2022-08-17T04:46:13.674Z,20.30
2022-08-17T04:48:47.191Z,20.35
2022-08-17T04:51:19.027Z,20.37
2022-08-17T04:53:54.161Z,20.19
2022-08-17T04:56:23.864Z,19.81
2022-08-17T04:58:53.778Z,20.10
2022-08-17T05:01:24.137Z,20.34
2022-08-17T05:03:53.326Z,20.66
2022-08-17T05:06:20.826Z,20.86
2022-08-17T05:08:48.004Z,20.71
2022-08-17T05:11:15.117Z,20.57
2022-08-17T05:13:42.245Z,20.73
2022-08-17T05:16:09.434Z,21.10
2022-08-17T05:18:39.875Z,21.19
2022-08-17T05:21:07.402Z,20.88
2022-08-17T05:23:38.527Z,20.67
2022-08-17T05:26:22.591Z,20.63
2022-08-17T05:29:00.529Z,20.64
2022-08-17T05:31:30.739Z,20.72
2022-08-17T05:33:58.155Z,20.78
2022-08-17T05:36:42.705Z,20.75
2022-08-17T05:39:16.068Z,20.74
2022-08-17T05:41:46.930Z,20.73
2022-08-17T05:44:14.511Z,20.85
2022-08-17T05:46:45.546Z,20.86
2022-08-17T05:49:16.312Z,20.77
2022-08-17T05:52:05.333Z,20.59
2022-08-17T05:55:01.327Z,20.76
2022-08-17T05:57:53.574Z,21.03
2022-08-17T06:00:30.788Z,21.31
2022-08-17T06:03:14.120Z,20.86
2022-08-17T06:06:01.741Z,21.04
2022-08-17T06:08:54.801Z,21.12
2022-08-17T06:11:37.298Z,21.21
2022-08-17T06:14:10.674Z,20.96
2022-08-17T06:16:43.270Z,20.89
2022-08-17T06:19:23.784Z,20.48
2022-08-17T06:21:54.776Z,20.83
2022-08-17T06:24:50.030Z,20.25
2022-08-17T06:27:30.206Z,19.90
2022-08-17T06:30:25.728Z,19.73
2022-08-17T06:32:59.418Z,19.70
2022-08-17T06:35:33.530Z,19.70
2022-08-17T06:38:19.873Z,19.77
2022-08-17T06:41:22.268Z,20.05
2022-08-17T06:44:12.687Z,20.25
2022-08-17T06:47:28.356Z,20.25
2022-08-17T06:49:56.633Z,20.61
2022-08-17T06:53:05.168Z,20.68
2022-08-17T06:55:50.046Z,20.89
2022-08-17T06:58:22.206Z,20.95
2022-08-17T07:00:58.105Z,21.25
2022-08-17T07:03:38.849Z,21.27
2022-08-17T07:06:16.966Z,21.56
2022-08-17T07:08:55.775Z,21.82
2022-08-17T07:11:38.201Z,22.00
2022-08-17T07:14:27.661Z,22.06
2022-08-17T07:16:58.032Z,22.12
2022-08-17T07:19:31.496Z,22.30
2022-08-17T07:22:04.519Z,22.02
2022-08-17T07:24:47.177Z,21.95
2022-08-17T07:27:21.249Z,22.20
2022-08-17T07:29:53.618Z,22.24
2022-08-17T07:32:35.392Z,22.33
2022-08-17T07:35:20.954Z,22.47
2022-08-17T07:37:54.038Z,22.75
2022-08-17T07:40:35.935Z,22.63
2022-08-17T07:43:26.083Z,22.77
2022-08-17T07:46:23.252Z,22.79
2022-08-17T07:49:03.328Z,22.74
2022-08-17T07:51:32.195Z,22.86
2022-08-17T07:54:14.633Z,23.06
2022-08-17T07:57:08.456Z,23.11
2022-08-17T07:59:38.502Z,23.08
2022-08-17T08:02:16.981Z,23.13
2022-08-17T08:05:00.262Z,23.16
2022-08-17T08:07:34.527Z,23.04
2022-08-17T08:10:09.769Z,23.24
2022-08-17T08:12:39.581Z,23.29
2022-08-17T08:15:19.683Z,23.22
2022-08-17T08:17:50.037Z,23.38
2022-08-17T08:20:37.720Z,23.20
2022-08-17T08:23:18.665Z,23.08
2022-08-17T08:26:07.964Z,23.00
2022-08-17T08:28:54.525Z,22.78
2022-08-17T08:31:43.831Z,22.78
2022-08-17T08:34:53.348Z,22.72
2022-08-17T08:37:36.700Z,22.89
2022-08-17T08:40:43.637Z,22.77
2022-08-17T08:43:41.653Z,22.91
2022-08-17T08:46:27.380Z,23.32
2022-08-17T08:49:16.955Z,23.52
2022-08-17T08:51:55.288Z,23.51
2022-08-17T08:54:35.066Z,23.44
2022-08-17T08:57:28.060Z,23.43
2022-08-17T09:00:03.976Z,23.39
2022-08-17T09:02:34.590Z,23.48
2022-08-17T09:05:14.999Z,23.20
2022-08-17T09:07:57.424Z,23.36
2022-08-17T09:10:27.091Z,23.41
2022-08-17T09:13:15.053Z,23.53
2022-08-17T09:16:00.979Z,23.64
2022-08-17T09:19:01.850Z,23.87
2022-08-17T09:21:55.130Z,24.37
2022-08-17T09:24:31.084Z,24.43
2022-08-17T09:27:06.265Z,24.30
2022-08-17T09:29:39.313Z,24.75
2022-08-17T09:32:17.535Z,24.45
2022-08-17T09:34:54.868Z,23.93
2022-08-17T09:37:43.610Z,24.09
2022-08-17T09:40:25.642Z,24.21
2022-08-17T09:42:56.431Z,24.20
2022-08-17T09:45:42.773Z,24.13
2022-08-17T09:48:27.503Z,24.47
2022-08-17T09:51:08.958Z,24.02
2022-08-17T09:53:38.576Z,23.90
2022-08-17T09:56:33.794Z,24.38
2022-08-17T09:59:17.067Z,24.43
2022-08-17T10:02:26.270Z,24.27
2022-08-17T10:05:07.358Z,24.46
2022-08-17T10:07:47.634Z,24.56
2022-08-17T10:10:29.589Z,24.40
2022-08-17T10:13:10.760Z,23.98
2022-08-17T10:15:38.363Z,24.19
2022-08-17T10:18:23.821Z,23.98
2022-08-17T10:21:25.217Z,24.34
2022-08-17T10:24:31.275Z,24.02
2022-08-17T10:27:01.623Z,24.39
2022-08-17T10:29:54.258Z,24.59
2022-08-17T10:32:27.405Z,24.06
2022-08-17T10:35:11.528Z,24.25
2022-08-17T10:37:38.584Z,24.37
2022-08-17T10:40:46.023Z,25.14
2022-08-17T10:44:36.574Z,25.66
2022-08-17T10:46:57.023Z,25.66
2022-08-17T10:49:29.279Z,25.50
2022-08-17T10:52:00.001Z,25.46
2022-08-17T10:54:47.376Z,25.22
2022-08-17T10:57:26.536Z,25.57
2022-08-17T10:59:56.402Z,26.15
2022-08-17T11:02:28.495Z,25.65
2022-08-17T11:05:06.834Z,24.71
2022-08-17T11:07:43.828Z,25.03
2022-08-17T11:10:52.106Z,24.94
2022-08-17T11:13:53.319Z,25.72
2022-08-17T11:16:20.386Z,26.36
2022-08-17T11:19:26.161Z,26.60
2022-08-17T11:22:12.090Z,26.54
2022-08-17T11:24:43.418Z,25.85
2022-08-17T11:27:32.637Z,25.26
2022-08-17T11:30:15.169Z,24.78
2022-08-17T11:32:52.210Z,25.30
2022-08-17T11:35:22.043Z,25.43
2022-08-17T11:38:13.999Z,25.88
2022-08-17T11:41:05.344Z,25.44
2022-08-17T11:43:51.015Z,25.05
2022-08-17T11:46:56.874Z,25.31
2022-08-17T11:49:57.755Z,25.24
2022-08-17T11:52:46.751Z,25.24
2022-08-17T11:55:35.829Z,26.29
2022-08-17T11:58:45.046Z,26.24
2022-08-17T12:01:16.066Z,26.51
2022-08-17T12:03:53.985Z,26.54
2022-08-17T12:06:34.721Z,26.52
2022-08-17T12:09:19.852Z,26.45
2022-08-17T12:11:58.767Z,26.46
2022-08-17T12:15:08.401Z,27.35
2022-08-17T12:17:41.272Z,27.38
2022-08-17T12:20:12.382Z,26.82
2022-08-17T12:23:08.319Z,27.00
2022-08-17T12:25:42.026Z,27.13
2022-08-17T12:28:26.901Z,26.27
2022-08-17T12:31:04.569Z,26.47
2022-08-17T12:33:31.951Z,25.85
2022-08-17T12:36:05.552Z,26.12
2022-08-17T12:38:36.035Z,25.48
2022-08-17T12:41:25.691Z,25.38
2022-08-17T12:44:12.151Z,25.76
2022-08-17T12:46:53.299Z,26.00
2022-08-17T12:49:25.149Z,25.92
2022-08-17T12:52:01.362Z,26.20
2022-08-17T12:54:45.310Z,26.28
2022-08-17T12:57:16.739Z,26.65
2022-08-17T12:59:50.184Z,25.90
2022-08-17T13:02:23.709Z,25.96
2022-08-17T13:04:51.374Z,26.13
2022-08-17T13:07:31.765Z,26.26
2022-08-17T13:09:59.166Z,26.46
2022-08-17T13:12:32.614Z,26.80
2022-08-17T13:15:00.345Z,27.33
2022-08-17T13:17:34.835Z,26.88
2022-08-17T13:20:05.663Z,27.30
2022-08-17T13:22:32.910Z,26.49
2022-08-17T13:25:05.369Z,26.55
2022-08-17T13:27:33.473Z,26.11
2022-08-17T13:30:11.634Z,26.13
2022-08-17T13:32:46.449Z,26.17
2022-08-17T13:35:39.259Z,26.76
2022-08-17T13:38:09.415Z,27.19
2022-08-17T13:40:38.303Z,27.43
2022-08-17T13:43:05.461Z,27.30
2022-08-17T13:45:39.290Z,27.29
2022-08-17T13:48:28.796Z,27.47
2022-08-17T13:50:58.617Z,27.82
2022-08-17T13:53:37.813Z,27.39
2022-08-17T13:56:37.746Z,28.23
2022-08-17T13:59:48.195Z,28.32
2022-08-17T14:02:18.074Z,28.51
2022-08-17T14:04:47.859Z,28.58
2022-08-17T14:07:15.949Z,28.08
2022-08-17T14:09:55.610Z,27.43
2022-08-17T14:12:26.745Z,28.34
2022-08-17T14:14:56.234Z,28.07
2022-08-17T14:17:24.945Z,28.53
2022-08-17T14:19:52.916Z,28.78
2022-08-17T14:22:26.870Z,28.50
2022-08-17T14:24:54.323Z,28.63
2022-08-17T14:27:21.751Z,28.43
2022-08-17T14:29:48.969Z,29.21
2022-08-17T14:32:16.994Z,28.75
2022-08-17T14:34:45.193Z,28.95
2022-08-17T14:37:12.701Z,29.44
2022-08-17T14:39:40.003Z,29.56
2022-08-17T14:42:09.302Z,29.68
2022-08-17T14:44:36.845Z,29.59
2022-08-17T14:47:05.225Z,36.78
2022-08-17T14:49:32.444Z,41.57
2022-08-17T14:52:00.585Z,41.73
2022-08-17T14:54:34.184Z,36.64
2022-08-17T14:57:23.639Z,34.66
2022-08-17T14:59:55.248Z,39.59
2022-08-17T15:02:30.427Z,43.22
2022-08-17T15:05:00.198Z,40.66
2022-08-17T15:07:30.892Z,32.37
2022-08-17T15:10:02.510Z,31.57
2022-08-17T15:12:34.220Z,42.74
2022-08-17T15:15:04.844Z,41.47
2022-08-17T15:17:45.186Z,42.89
2022-08-17T15:20:19.351Z,40.31
2022-08-17T15:22:50.940Z,40.45
2022-08-17T15:25:19.380Z,36.72
2022-08-17T15:27:47.348Z,34.25
2022-08-17T15:30:15.755Z,35.97
2022-08-17T15:32:50.779Z,39.37
2022-08-17T15:35:27.809Z,44.57
2022-08-17T15:38:07.886Z,45.43
2022-08-17T15:40:39.567Z,37.51
2022-08-17T15:43:10.801Z,33.63
2022-08-17T15:45:38.959Z,36.89
2022-08-17T15:48:06.948Z,42.40
2022-08-17T15:50:34.587Z,43.13
2022-08-17T15:53:03.549Z,41.32
2022-08-17T15:55:31.854Z,38.78
2022-08-17T15:57:59.548Z,36.30
2022-08-17T16:00:29.107Z,40.61
2022-08-17T16:03:15.925Z,42.53
2022-08-17T16:05:46.959Z,46.28
2022-08-17T16:08:20.087Z,48.26
2022-08-17T16:10:49.791Z,49.06
2022-08-17T16:13:18.919Z,46.47
2022-08-17T16:15:56.817Z,46.63
2022-08-17T16:18:31.353Z,42.39
2022-08-17T16:21:24.061Z,42.92
2022-08-17T16:23:59.228Z,42.72
2022-08-17T16:26:27.155Z,42.11
2022-08-17T16:28:55.971Z,41.50
2022-08-17T16:31:23.491Z,40.37
2022-08-17T16:34:01.043Z,36.06
2022-08-17T16:36:38.424Z,37.11
2022-08-17T16:39:05.576Z,40.17
2022-08-17T16:41:48.302Z,39.50
2022-08-17T16:44:17.293Z,37.97
2022-08-17T16:46:46.072Z,35.92
2022-08-17T16:49:35.063Z,33.83
2022-08-17T16:52:03.302Z,33.56
2022-08-17T16:54:30.685Z,33.10
2022-08-17T16:56:57.784Z,32.16
2022-08-17T16:59:30.253Z,30.93
2022-08-17T17:02:10.593Z,30.74
2022-08-17T17:04:41.981Z,30.30
2022-08-17T17:07:28.193Z,30.39
2022-08-17T17:09:55.886Z,29.87
2022-08-17T17:13:00.830Z,30.49
2022-08-17T17:15:13.210Z,29.73
2022-08-17T17:17:42.812Z,29.09
2022-08-17T17:20:29.075Z,29.58
2022-08-17T17:23:08.947Z,30.16
2022-08-17T17:25:55.381Z,31.90
2022-08-17T17:29:00.914Z,31.37
2022-08-17T17:31:38.206Z,32.08
2022-08-17T17:34:07.636Z,33.22
2022-08-17T17:36:58.495Z,32.25
2022-08-17T17:39:46.415Z,31.32
2022-08-17T17:42:20.496Z,30.84
2022-08-17T17:45:31.230Z,30.74
2022-08-17T17:47:58.363Z,29.44
2022-08-17T17:50:36.757Z,28.28
2022-08-17T17:53:05.215Z,28.08
2022-08-17T17:55:45.225Z,27.93
2022-08-17T17:58:27.500Z,28.03
2022-08-17T18:01:07.653Z,28.18
2022-08-17T18:03:50.330Z,28.16
2022-08-17T18:06:32.618Z,28.28
2022-08-17T18:09:18.050Z,27.59
2022-08-17T18:12:19.715Z,27.78
2022-08-17T18:15:02.060Z,27.76
2022-08-17T18:17:29.919Z,27.40
2022-08-17T18:19:57.301Z,27.28
2022-08-17T18:22:25.962Z,27.48
2022-08-17T18:24:58.064Z,27.56
2022-08-17T18:27:25.159Z,27.40
2022-08-17T18:29:54.527Z,27.18
2022-08-17T18:32:25.955Z,27.09
2022-08-17T18:35:27.456Z,27.12
2022-08-17T18:38:19.953Z,26.89
2022-08-17T18:41:05.901Z,26.91
2022-08-17T18:43:52.873Z,26.78
2022-08-17T18:46:29.029Z,26.53
2022-08-17T18:49:03.131Z,26.63
2022-08-17T18:51:41.474Z,26.21
2022-08-17T18:54:22.446Z,26.42
2022-08-17T18:56:55.704Z,26.33
2022-08-17T18:59:34.799Z,26.23
2022-08-17T19:02:20.638Z,26.13
2022-08-17T19:05:10.476Z,26.34
2022-08-17T19:07:47.339Z,25.51
2022-08-17T19:10:46.972Z,25.45
2022-08-17T19:13:24.380Z,25.68
2022-08-17T19:16:15.786Z,25.62
2022-08-17T19:18:57.900Z,25.95
2022-08-17T19:21:37.161Z,26.06
2022-08-17T19:24:11.115Z,25.87
2022-08-17T19:26:53.608Z,25.52
2022-08-17T19:29:46.162Z,25.29
2022-08-17T19:32:16.894Z,24.77
2022-08-17T19:34:44.410Z,24.92
2022-08-17T19:37:38.847Z,25.15
2022-08-17T19:40:52.816Z,25.23
2022-08-17T19:43:51.201Z,25.11
2022-08-17T19:46:35.669Z,24.81
2022-08-17T19:49:22.658Z,25.07
2022-08-17T19:52:11.037Z,24.66
2022-08-17T19:54:52.255Z,24.82
2022-08-17T19:57:42.845Z,24.43
2022-08-17T20:00:15.372Z,24.54
2022-08-17T20:02:54.359Z,24.76
2022-08-17T20:05:23.813Z,24.89
2022-08-17T20:08:06.490Z,25.01
2022-08-17T20:10:54.811Z,24.99
2022-08-17T20:13:33.172Z,24.94
2022-08-17T20:16:02.506Z,24.65
2022-08-17T20:18:44.037Z,24.68
2022-08-17T20:21:31.002Z,24.84
2022-08-17T20:24:27.352Z,24.68
2022-08-17T20:27:13.647Z,24.75
2022-08-17T20:29:59.235Z,24.59
2022-08-17T20:32:34.693Z,24.47
2022-08-17T20:35:09.745Z,24.51
2022-08-17T20:37:43.135Z,24.07
2022-08-17T20:40:10.295Z,24.04
2022-08-17T20:42:37.485Z,24.14
2022-08-17T20:45:25.972Z,24.09
2022-08-17T20:48:27.262Z,23.86
2022-08-17T20:50:56.304Z,23.52
2022-08-17T20:54:26.453Z,23.62
2022-08-17T20:56:57.179Z,23.81
2022-08-17T20:59:25.775Z,23.96
2022-08-17T21:02:18.314Z,23.93
2022-08-17T21:05:00.704Z,23.82
2022-08-17T21:07:42.870Z,23.75
2022-08-17T21:10:27.552Z,23.86
2022-08-17T21:13:13.469Z,23.83
2022-08-17T21:15:43.977Z,23.53
2022-08-17T21:18:23.318Z,23.49
2022-08-17T21:21:06.328Z,23.63
2022-08-17T21:24:08.442Z,23.39
2022-08-17T21:26:50.418Z,23.63
2022-08-17T21:29:31.608Z,23.52
2022-08-17T21:32:06.297Z,23.53
2022-08-17T21:34:44.334Z,23.59
2022-08-17T21:37:21.779Z,23.54
2022-08-17T21:39:52.633Z,23.42
2022-08-17T21:42:31.594Z,22.69
2022-08-17T21:45:10.033Z,22.51
2022-08-17T21:47:43.240Z,22.74
2022-08-17T21:50:17.082Z,23.00
2022-08-17T21:52:44.778Z,23.16
2022-08-17T21:55:21.330Z,23.01
2022-08-17T21:57:53.168Z,23.06
2022-08-17T22:00:36.739Z,23.18
2022-08-17T22:03:06.920Z,23.15
2022-08-17T22:05:37.430Z,22.93
2022-08-17T22:08:18.221Z,22.87
2022-08-17T22:10:50.390Z,22.72
2022-08-17T22:13:17.754Z,22.81
2022-08-17T22:15:48.382Z,22.69
2022-08-17T22:18:22.110Z,22.68
2022-08-17T22:20:52.389Z,22.59
2022-08-17T22:23:45.208Z,22.75
2022-08-17T22:26:15.517Z,22.78
2022-08-17T22:28:52.287Z,22.81
2022-08-17T22:31:22.367Z,22.74
2022-08-17T22:33:51.164Z,22.66
2022-08-17T22:36:26.250Z,22.65
2022-08-17T22:39:01.154Z,22.65
2022-08-17T22:42:00.221Z,22.49
2022-08-17T22:44:33.997Z,22.44
2022-08-17T22:47:16.167Z,22.47
2022-08-17T22:49:53.812Z,22.40
2022-08-17T22:53:00.341Z,22.11
2022-08-17T22:55:48.804Z,22.03
2022-08-17T22:58:37.369Z,22.09
2022-08-17T23:01:32.368Z,22.22
2022-08-17T23:04:04.111Z,22.36
2022-08-17T23:06:33.763Z,22.28
2022-08-17T23:09:03.791Z,22.22
2022-08-17T23:11:49.197Z,22.14
2022-08-17T23:14:19.648Z,22.27
2022-08-17T23:16:48.950Z,22.12
2022-08-17T23:19:19.911Z,22.03
2022-08-17T23:21:50.955Z,22.02
2022-08-17T23:24:30.443Z,21.96
2022-08-17T23:26:58.908Z,21.87
2022-08-17T23:29:29.227Z,21.83
2022-08-17T23:31:59.721Z,21.92
2022-08-17T23:34:28.365Z,21.96
2022-08-17T23:36:56.026Z,21.90
2022-08-17T23:39:27.462Z,21.88
2022-08-17T23:42:00.233Z,21.80
2022-08-17T23:44:28.744Z,21.76
2022-08-17T23:46:56.858Z,21.60
2022-08-17T23:49:25.041Z,21.65
2022-08-17T23:51:54.638Z,21.65
2022-08-17T23:54:31.333Z,21.62
2022-08-17T23:56:58.475Z,21.58
2022-08-17T23:59:26.999Z,21.52
